createdAt,value
2022-08-28T00:01:24.669Z,99.22
2022-08-28T00:03:51.194Z,99.21
2022-08-28T00:06:17.745Z,99.48
2022-08-28T00:08:44.381Z,100.00
2022-08-28T00:11:10.973Z,99.99
2022-08-28T00:13:37.993Z,100.00
2022-08-28T00:16:06.768Z,100.00
2022-08-28T00:18:33.562Z,100.00
2022-08-28T00:21:01.255Z,100.00
2022-08-28T00:23:42.319Z,99.97
2022-08-28T00:26:09.912Z,100.00
2022-08-28T00:28:36.438Z,99.60
2022-08-28T00:31:03.131Z,99.60
2022-08-28T00:33:33.879Z,99.36
2022-08-28T00:36:01.170Z,99.75
2022-08-28T00:38:28.973Z,99.46
2022-08-28T00:40:57.973Z,99.31
2022-08-28T00:43:34.373Z,99.41
2022-08-28T00:46:02.065Z,99.49
2022-08-28T00:48:28.866Z,99.49
2022-08-28T00:51:00.790Z,99.46
2022-08-28T00:53:29.015Z,99.52
2022-08-28T00:55:59.070Z,99.76
2022-08-28T00:58:25.611Z,99.53
2022-08-28T01:00:52.175Z,99.41
2022-08-28T01:03:18.706Z,99.65
2022-08-28T01:05:45.353Z,99.95
2022-08-28T01:08:13.582Z,99.88
2022-08-28T01:10:43.762Z,99.40
2022-08-28T01:13:11.199Z,99.74
2022-08-28T01:15:39.425Z,99.71
2022-08-28T01:18:08.826Z,99.29
2022-08-28T01:20:38.642Z,99.43
2022-08-28T01:23:12.682Z,99.44
2022-08-28T01:25:41.308Z,99.38
2022-08-28T01:28:10.923Z,99.24
2022-08-28T01:30:38.473Z,99.01
2022-08-28T01:33:05.164Z,99.22
2022-08-28T01:35:35.284Z,99.42
2022-08-28T01:38:02.234Z,99.30
2022-08-28T01:40:31.884Z,99.53
2022-08-28T01:43:08.596Z,99.82
2022-08-28T01:45:36.434Z,99.38
2022-08-28T01:48:03.942Z,99.31
2022-08-28T01:50:31.906Z,99.72
2022-08-28T01:52:58.453Z,99.31
2022-08-28T01:55:25.069Z,99.42
2022-08-28T01:57:54.419Z,99.80
2022-08-28T02:00:23.130Z,99.26
2022-08-28T02:02:49.699Z,99.17
2022-08-28T02:05:16.229Z,99.55
2022-08-28T02:07:42.758Z,99.30
2022-08-28T02:10:09.455Z,99.12
2022-08-28T02:12:36.309Z,99.26
2022-08-28T02:15:03.422Z,99.35
2022-08-28T02:17:31.308Z,99.55
2022-08-28T02:19:57.830Z,99.50
2022-08-28T02:22:24.497Z,99.49
2022-08-28T02:24:51.177Z,99.34
2022-08-28T02:27:17.791Z,99.36
2022-08-28T02:29:44.343Z,98.95
2022-08-28T02:32:11.299Z,99.07
2022-08-28T02:34:39.409Z,99.38
2022-08-28T02:37:05.964Z,99.05
2022-08-28T02:39:32.469Z,98.81
2022-08-28T02:41:59.006Z,98.73
2022-08-28T02:44:25.558Z,99.27
2022-08-28T02:46:52.074Z,99.20
2022-08-28T02:49:20.629Z,99.15
2022-08-28T02:51:48.499Z,98.72
2022-08-28T02:54:15.069Z,98.95
2022-08-28T02:56:45.118Z,98.57
2022-08-28T02:59:11.667Z,98.95
2022-08-28T03:01:38.225Z,98.76
2022-08-28T03:04:05.052Z,98.84
2022-08-28T03:06:32.489Z,98.98
2022-08-28T03:09:00.377Z,98.76
2022-08-28T03:11:27.144Z,98.83
2022-08-28T03:13:53.970Z,99.24
2022-08-28T03:16:20.584Z,99.08
2022-08-28T03:22:15.221Z,99.24
2022-08-28T03:24:43.277Z,99.06
2022-08-28T03:27:09.834Z,99.47
2022-08-28T03:29:36.551Z,99.20
2022-08-28T03:32:03.570Z,98.82
2022-08-28T03:34:30.150Z,99.42
2022-08-28T03:36:56.704Z,99.46
2022-08-28T03:39:23.274Z,99.14
2022-08-28T03:41:51.193Z,99.19
2022-08-28T03:44:17.760Z,99.28
2022-08-28T03:46:44.324Z,99.08
2022-08-28T03:49:11.442Z,99.17
2022-08-28T03:51:40.428Z,99.49
2022-08-28T03:54:06.994Z,99.96
2022-08-28T03:56:33.695Z,99.60
2022-08-28T03:59:03.762Z,99.82
2022-08-28T04:01:30.967Z,99.13
2022-08-28T04:03:57.597Z,98.98
2022-08-28T04:06:24.245Z,99.58
2022-08-28T04:08:51.114Z,99.38
2022-08-28T04:11:18.059Z,99.16
2022-08-28T04:13:45.024Z,99.06
2022-08-28T04:16:14.737Z,99.05
2022-08-28T04:18:43.135Z,98.88
2022-08-28T04:21:11.777Z,98.91
2022-08-28T04:23:40.040Z,99.01
2022-08-28T04:26:07.296Z,99.16
2022-08-28T04:28:34.980Z,98.66
2022-08-28T04:31:01.758Z,98.63
2022-08-28T04:33:30.770Z,98.68
2022-08-28T04:35:57.440Z,98.36
2022-08-28T04:38:24.105Z,98.55
2022-08-28T04:40:50.702Z,97.99
2022-08-28T04:43:17.341Z,97.90
2022-08-28T04:45:45.859Z,97.74
2022-08-28T04:48:14.010Z,97.85
2022-08-28T04:50:43.114Z,97.92
2022-08-28T04:53:10.585Z,97.38
2022-08-28T04:55:54.425Z,97.69
2022-08-28T04:58:23.694Z,97.64
2022-08-28T05:00:52.787Z,97.99
2022-08-28T05:03:19.661Z,97.51
2022-08-28T05:05:50.076Z,97.40
2022-08-28T05:08:18.632Z,97.33
2022-08-28T05:10:45.508Z,96.93
2022-08-28T05:13:13.774Z,97.08
2022-08-28T05:15:40.658Z,96.14
2022-08-28T05:18:07.955Z,95.83
2022-08-28T05:20:35.682Z,95.91
2022-08-28T05:23:03.955Z,95.83
2022-08-28T05:25:30.626Z,95.69
2022-08-28T05:27:57.169Z,95.00
2022-08-28T05:30:23.771Z,95.34
2022-08-28T05:32:50.323Z,95.07
2022-08-28T05:35:16.964Z,95.08
2022-08-28T05:37:45.225Z,94.94
2022-08-28T05:40:13.414Z,93.96
2022-08-28T05:42:40.006Z,94.23
2022-08-28T05:45:07.960Z,93.41
2022-08-28T05:47:34.545Z,93.21
2022-08-28T05:50:01.123Z,93.25
2022-08-28T05:52:27.670Z,92.59
2022-08-28T05:54:54.274Z,92.03
2022-08-28T05:57:22.187Z,92.19
2022-08-28T05:59:49.011Z,91.37
2022-08-28T06:02:15.633Z,90.92
2022-08-28T06:04:42.252Z,90.33
2022-08-28T06:07:08.803Z,89.94
2022-08-28T06:09:35.378Z,89.33
2022-08-28T06:12:02.215Z,88.77
2022-08-28T06:14:31.713Z,88.38
2022-08-28T06:16:59.724Z,88.36
2022-08-28T06:19:27.794Z,88.14
2022-08-28T06:21:55.405Z,87.12
2022-08-28T06:24:21.990Z,87.73
2022-08-28T06:26:48.575Z,86.85
2022-08-28T06:29:16.720Z,86.45
2022-08-28T06:31:45.142Z,85.86
2022-08-28T06:34:12.345Z,85.36
2022-08-28T06:36:41.355Z,86.00
2022-08-28T06:39:09.922Z,84.80
2022-08-28T06:41:36.896Z,83.81
2022-08-28T06:44:03.628Z,83.54
2022-08-28T06:46:30.202Z,83.73
2022-08-28T06:48:58.133Z,83.52
2022-08-28T06:51:25.044Z,82.52
2022-08-28T06:53:52.164Z,82.44
2022-08-28T06:56:26.038Z,82.29
2022-08-28T06:58:55.254Z,82.53
2022-08-28T07:01:24.787Z,83.24
2022-08-28T07:03:53.503Z,83.03
2022-08-28T07:06:22.869Z,82.87
2022-08-28T07:08:50.265Z,82.94
2022-08-28T07:11:19.810Z,83.00
2022-08-28T07:13:46.752Z,82.09
2022-08-28T07:16:15.768Z,81.62
2022-08-28T07:18:42.673Z,80.44
2022-08-28T07:21:12.439Z,80.60
2022-08-28T07:23:43.622Z,79.75
2022-08-28T07:26:12.853Z,78.84
2022-08-28T07:28:39.471Z,77.34
2022-08-28T07:31:08.558Z,77.67
2022-08-28T07:33:36.619Z,77.79
2022-08-28T07:36:06.332Z,77.34
2022-08-28T07:38:33.154Z,75.48
2022-08-28T07:41:01.407Z,74.35
2022-08-28T07:43:27.967Z,74.96
2022-08-28T07:45:58.368Z,75.80
2022-08-28T07:48:25.030Z,74.17
2022-08-28T07:50:51.710Z,72.50
2022-08-28T07:53:18.273Z,70.47
2022-08-28T07:55:44.869Z,70.60
2022-08-28T07:58:13.090Z,71.28
2022-08-28T08:00:39.783Z,71.51
2022-08-28T08:03:06.407Z,71.23
2022-08-28T08:05:33.022Z,70.52
2022-08-28T08:07:59.569Z,70.44
2022-08-28T08:10:26.150Z,71.01
2022-08-28T08:13:00.495Z,72.06
2022-08-28T08:15:31.362Z,71.46
2022-08-28T08:17:58.087Z,72.16
2022-08-28T08:20:24.667Z,71.59
2022-08-28T08:22:51.223Z,72.79
2022-08-28T08:25:17.886Z,71.93
2022-08-28T08:27:44.436Z,71.68
2022-08-28T08:30:12.092Z,71.07
2022-08-28T08:32:40.014Z,71.95
2022-08-28T08:35:07.126Z,70.24
2022-08-28T08:37:33.682Z,70.13
2022-08-28T08:40:00.429Z,70.36
2022-08-28T08:42:30.266Z,70.12
2022-08-28T08:44:59.360Z,70.54
2022-08-28T08:47:33.726Z,71.29
2022-08-28T08:50:04.950Z,71.88
2022-08-28T08:52:37.874Z,71.58
2022-08-28T08:55:16.493Z,70.96
2022-08-28T08:57:49.121Z,72.30
2022-08-28T09:00:17.223Z,72.04
2022-08-28T09:02:48.127Z,72.18
2022-08-28T09:05:20.635Z,71.94
2022-08-28T09:07:53.659Z,71.95
2022-08-28T09:10:20.476Z,70.69
2022-08-28T09:12:55.277Z,71.52
2022-08-28T09:15:28.634Z,69.99
2022-08-28T09:18:10.500Z,69.74
2022-08-28T09:20:38.894Z,69.29
2022-08-28T09:23:13.468Z,69.32
2022-08-28T09:25:52.942Z,68.35
2022-08-28T09:28:23.105Z,68.96
2022-08-28T09:30:57.393Z,68.54
2022-08-28T09:33:41.715Z,66.90
2022-08-28T09:36:32.792Z,67.69
2022-08-28T09:39:08.939Z,66.19
2022-08-28T09:41:38.506Z,66.44
2022-08-28T09:44:05.104Z,66.56
2022-08-28T09:46:32.570Z,67.53
2022-08-28T09:49:08.722Z,67.41
2022-08-28T09:51:36.667Z,68.12
2022-08-28T09:54:10.369Z,66.93
2022-08-28T09:56:40.511Z,66.42
2022-08-28T09:59:09.268Z,66.19
2022-08-28T10:01:53.256Z,66.08
2022-08-28T10:04:37.530Z,67.17
2022-08-28T10:07:13.046Z,65.20
2022-08-28T10:09:46.943Z,65.07
2022-08-28T10:12:26.492Z,65.02
2022-08-28T10:15:00.673Z,65.74
2022-08-28T10:17:40.451Z,66.16
2022-08-28T10:20:13.552Z,64.94
2022-08-28T10:22:48.525Z,63.48
2022-08-28T10:25:22.030Z,65.28
2022-08-28T10:28:01.019Z,64.06
2022-08-28T10:30:31.271Z,63.87
2022-08-28T10:33:23.356Z,64.61
2022-08-28T10:35:55.256Z,63.08
2022-08-28T10:38:36.675Z,63.63
2022-08-28T10:41:08.490Z,62.80
2022-08-28T10:43:38.653Z,61.89
2022-08-28T10:46:10.540Z,61.20
2022-08-28T10:48:43.404Z,62.29
2022-08-28T10:51:17.367Z,63.55
2022-08-28T10:53:51.750Z,63.47
2022-08-28T10:56:23.051Z,64.32
2022-08-28T10:58:54.663Z,63.94
2022-08-28T11:01:25.728Z,63.85
2022-08-28T11:03:52.435Z,64.31
2022-08-28T11:06:27.725Z,62.99
2022-08-28T11:08:57.756Z,63.04
2022-08-28T11:11:46.419Z,61.55
2022-08-28T11:14:24.289Z,62.17
2022-08-28T11:16:52.103Z,61.45
2022-08-28T11:20:09.509Z,62.25
2022-08-28T11:22:40.509Z,61.80
2022-08-28T11:25:17.150Z,61.43
2022-08-28T11:28:12.323Z,60.51
2022-08-28T11:30:39.093Z,61.03
2022-08-28T11:33:08.954Z,60.65
2022-08-28T11:35:42.647Z,60.94
2022-08-28T11:38:09.627Z,59.38
2022-08-28T11:40:56.617Z,59.81
2022-08-28T11:43:37.365Z,59.39
2022-08-28T11:46:26.756Z,60.17
2022-08-28T11:48:55.765Z,59.54
2022-08-28T11:51:48.790Z,57.98
2022-08-28T11:54:26.184Z,57.49
2022-08-28T11:57:05.974Z,58.08
2022-08-28T11:59:53.678Z,58.75
2022-08-28T12:02:52.760Z,58.82
2022-08-28T12:05:38.871Z,58.79
2022-08-28T12:08:05.474Z,59.22
2022-08-28T12:10:55.336Z,59.09
2022-08-28T12:13:46.723Z,59.07
2022-08-28T12:16:13.578Z,58.51
2022-08-28T12:19:02.878Z,58.90
2022-08-28T12:21:35.266Z,58.26
2022-08-28T12:24:09.974Z,58.45
2022-08-28T12:26:46.628Z,58.87
2022-08-28T12:29:28.031Z,58.45
2022-08-28T12:32:18.732Z,59.52
2022-08-28T12:34:49.788Z,58.70
2022-08-28T12:37:51.503Z,57.83
2022-08-28T12:40:21.964Z,58.38
2022-08-28T12:42:55.199Z,54.61
2022-08-28T12:45:27.577Z,56.57
2022-08-28T12:47:57.910Z,56.13
2022-08-28T12:50:28.396Z,56.31
2022-08-28T12:52:58.126Z,56.47
2022-08-28T12:55:25.467Z,57.10
2022-08-28T12:57:52.944Z,57.08
2022-08-28T13:00:22.468Z,56.67
2022-08-28T13:02:52.712Z,56.74
2022-08-28T13:05:29.543Z,56.42
2022-08-28T13:07:56.899Z,55.80
2022-08-28T13:10:26.649Z,54.60
2022-08-28T13:12:59.801Z,55.48
2022-08-28T13:15:48.536Z,55.97
2022-08-28T13:18:47.415Z,55.52
2022-08-28T13:21:33.379Z,55.93
2022-08-28T13:24:27.669Z,54.95
2022-08-28T13:27:02.934Z,56.83
2022-08-28T13:29:30.296Z,56.08
2022-08-28T13:31:58.966Z,57.06
2022-08-28T13:34:28.046Z,55.03
2022-08-28T13:36:56.456Z,55.80
2022-08-28T13:39:23.028Z,55.69
2022-08-28T13:41:53.297Z,55.96
2022-08-28T13:44:28.162Z,54.49
2022-08-28T13:46:54.761Z,54.03
2022-08-28T13:49:21.425Z,53.85
2022-08-28T13:51:48.228Z,53.22
2022-08-28T13:54:15.102Z,53.77
2022-08-28T13:56:42.936Z,53.34
2022-08-28T13:59:10.962Z,53.25
2022-08-28T14:01:42.263Z,53.72
2022-08-28T14:04:08.867Z,51.87
2022-08-28T14:06:35.465Z,52.76
2022-08-28T14:09:02.059Z,52.24
2022-08-28T14:11:28.579Z,52.82
2022-08-28T14:13:55.975Z,52.44
2022-08-28T14:16:25.391Z,52.61
2022-08-28T14:18:52.582Z,52.77
2022-08-28T14:21:19.168Z,54.12
2022-08-28T14:23:45.710Z,52.26
2022-08-28T14:26:12.260Z,52.82
2022-08-28T14:28:38.788Z,53.96
2022-08-28T14:31:05.938Z,55.43
2022-08-28T14:33:36.882Z,54.79
2022-08-28T14:36:03.761Z,54.75
2022-08-28T14:38:30.363Z,54.36
2022-08-28T14:40:56.905Z,54.23
2022-08-28T14:43:24.033Z,54.39
2022-08-28T14:45:50.835Z,54.51
2022-08-28T14:48:18.597Z,53.83
2022-08-28T14:50:49.119Z,54.78
2022-08-28T14:53:16.313Z,54.25
2022-08-28T14:55:46.208Z,53.25
2022-08-28T14:58:14.365Z,55.21
2022-08-28T15:00:43.061Z,54.01
2022-08-28T15:03:09.779Z,54.25
2022-08-28T15:05:36.323Z,52.18
2022-08-28T15:08:07.066Z,53.14
2022-08-28T15:10:34.003Z,52.89
2022-08-28T15:13:00.565Z,52.92
2022-08-28T15:15:27.113Z,52.46
2022-08-28T15:17:53.662Z,53.68
2022-08-28T15:20:20.232Z,52.73
2022-08-28T15:22:46.779Z,53.82
2022-08-28T15:25:14.691Z,53.77
2022-08-28T15:27:41.272Z,53.68
2022-08-28T15:30:08.846Z,53.58
2022-08-28T15:32:35.529Z,54.38
2022-08-28T15:35:02.090Z,54.21
2022-08-28T15:37:28.643Z,54.59
2022-08-28T15:39:58.219Z,54.46
2022-08-28T15:42:26.165Z,54.52
2022-08-28T15:44:56.239Z,55.26
2022-08-28T15:47:24.262Z,55.60
2022-08-28T15:49:54.970Z,56.20
2022-08-28T15:52:22.378Z,56.75
2022-08-28T15:54:49.254Z,56.34
2022-08-28T15:57:16.088Z,56.13
2022-08-28T15:59:50.039Z,55.38
2022-08-28T16:02:18.032Z,55.16
2022-08-28T16:04:44.633Z,54.54
2022-08-28T16:07:11.199Z,55.44
2022-08-28T16:09:37.794Z,55.47
2022-08-28T16:12:04.901Z,56.12
2022-08-28T16:14:31.890Z,55.72
2022-08-28T16:17:00.008Z,55.91
2022-08-28T16:19:32.858Z,56.94
2022-08-28T16:21:59.412Z,59.17
2022-08-28T16:24:26.048Z,55.69
2022-08-28T16:26:52.578Z,56.37
2022-08-28T16:29:19.152Z,58.11
2022-08-28T16:31:47.625Z,58.92
2022-08-28T16:34:15.605Z,59.96
2022-08-28T16:36:46.300Z,62.35
2022-08-28T16:39:12.851Z,62.30
2022-08-28T16:41:39.474Z,61.78
2022-08-28T16:44:06.035Z,62.57
2022-08-28T16:46:32.995Z,62.42
2022-08-28T16:48:59.605Z,62.36
2022-08-28T16:51:27.527Z,64.19
2022-08-28T16:53:54.550Z,65.64
2022-08-28T16:56:21.584Z,65.63
2022-08-28T16:58:48.167Z,65.85
2022-08-28T17:01:19.656Z,66.20
2022-08-28T17:03:48.532Z,67.94
2022-08-28T17:06:19.319Z,67.16
2022-08-28T17:08:47.396Z,68.32
2022-08-28T17:11:14.113Z,67.63
2022-08-28T17:13:56.040Z,67.77
2022-08-28T17:16:23.835Z,67.71
2022-08-28T17:18:52.582Z,68.62
2022-08-28T17:21:19.682Z,69.42
2022-08-28T17:23:47.650Z,68.60
2022-08-28T17:26:14.550Z,69.11
2022-08-28T17:28:41.207Z,68.80
2022-08-28T17:31:07.817Z,69.36
2022-08-28T17:33:35.817Z,71.54
2022-08-28T17:36:03.064Z,71.46
2022-08-28T17:38:29.985Z,71.75
2022-08-28T17:40:57.868Z,72.79
2022-08-28T17:43:24.428Z,73.78
2022-08-28T17:45:50.964Z,73.61
2022-08-28T17:48:17.545Z,73.89
2022-08-28T17:50:44.118Z,74.53
2022-08-28T17:53:10.651Z,75.53
2022-08-28T17:55:37.219Z,75.53
2022-08-28T17:58:05.296Z,75.75
2022-08-28T18:00:31.851Z,75.95
2022-08-28T18:02:58.411Z,75.37
2022-08-28T18:05:25.233Z,76.27
2022-08-28T18:07:51.780Z,76.48
2022-08-28T18:10:18.951Z,76.63
2022-08-28T18:12:45.484Z,76.75
2022-08-28T18:15:13.870Z,77.56
2022-08-28T18:17:41.726Z,77.92
2022-08-28T18:20:10.706Z,77.77
2022-08-28T18:22:37.997Z,77.92
2022-08-28T18:25:05.965Z,78.67
2022-08-28T18:27:32.499Z,79.25
2022-08-28T18:29:59.048Z,78.88
2022-08-28T18:32:26.896Z,79.56
2022-08-28T18:34:53.427Z,79.38
2022-08-28T18:37:19.932Z,79.79
2022-08-28T18:39:46.442Z,79.51
2022-08-28T18:42:12.941Z,79.97
2022-08-28T18:44:39.457Z,79.92
2022-08-28T18:47:06.061Z,80.16
2022-08-28T18:49:33.950Z,80.34
2022-08-28T18:52:00.498Z,80.12
2022-08-28T18:54:27.878Z,79.65
2022-08-28T18:56:57.361Z,80.67
2022-08-28T18:59:28.104Z,80.16
2022-08-28T19:01:54.748Z,81.12
2022-08-28T19:04:21.374Z,80.76
2022-08-28T19:06:49.290Z,80.58
2022-08-28T19:09:19.360Z,80.81
2022-08-28T19:11:47.512Z,80.91
2022-08-28T19:14:14.063Z,81.61
2022-08-28T19:16:40.678Z,81.33
2022-08-28T19:19:07.237Z,81.05
2022-08-28T19:21:35.612Z,81.26
2022-08-28T19:24:03.827Z,81.39
2022-08-28T19:26:31.218Z,81.44
2022-08-28T19:28:58.001Z,81.97
2022-08-28T19:31:26.014Z,82.45
2022-08-28T19:33:53.239Z,82.90
2022-08-28T19:36:20.099Z,82.93
2022-08-28T19:38:46.773Z,82.69
2022-08-28T19:41:14.846Z,83.29
2022-08-28T19:43:44.126Z,83.27
2022-08-28T19:46:19.281Z,83.20
2022-08-28T19:48:47.055Z,83.58
2022-08-28T19:51:17.640Z,83.26
2022-08-28T19:53:56.089Z,83.57
2022-08-28T19:56:25.799Z,83.74
2022-08-28T19:58:52.923Z,84.17
2022-08-28T20:01:19.485Z,84.43
2022-08-28T20:03:46.091Z,85.28
2022-08-28T20:06:12.652Z,85.51
2022-08-28T20:08:39.217Z,85.03
2022-08-28T20:11:06.014Z,85.18
2022-08-28T20:13:33.891Z,85.29
2022-08-28T20:16:03.359Z,85.49
2022-08-28T20:18:29.939Z,85.81
2022-08-28T20:20:56.537Z,86.55
2022-08-28T20:23:23.124Z,86.31
2022-08-28T20:25:51.067Z,86.35
2022-08-28T20:28:18.556Z,86.42
2022-08-28T20:30:46.827Z,86.42
2022-08-28T20:33:13.525Z,86.44
2022-08-28T20:35:40.107Z,87.03
2022-08-28T20:38:06.846Z,86.95
2022-08-28T20:40:33.468Z,87.05
2022-08-28T20:43:00.100Z,86.65
2022-08-28T20:45:26.685Z,86.88
2022-08-28T20:47:54.646Z,87.07
2022-08-28T20:50:21.293Z,87.29
2022-08-28T20:52:47.846Z,87.30
2022-08-28T20:55:14.387Z,87.73
2022-08-28T20:57:41.358Z,88.00
2022-08-28T21:00:09.676Z,88.16
2022-08-28T21:02:37.306Z,88.64
2022-08-28T21:05:06.131Z,88.10
2022-08-28T21:07:32.796Z,87.79
2022-08-28T21:10:06.119Z,88.58
2022-08-28T21:12:34.159Z,88.01
2022-08-28T21:15:00.931Z,88.48
2022-08-28T21:17:29.448Z,87.77
2022-08-28T21:19:57.708Z,88.00
2022-08-28T21:22:25.628Z,88.26
2022-08-28T21:24:52.183Z,87.91
2022-08-28T21:27:18.841Z,87.92
2022-08-28T21:29:45.729Z,87.74
2022-08-28T21:32:12.437Z,88.15
2022-08-28T21:34:38.993Z,87.72
2022-08-28T21:37:05.678Z,88.08
2022-08-28T21:39:34.331Z,87.58
2022-08-28T21:42:00.916Z,88.21
2022-08-28T21:44:27.531Z,88.43
2022-08-28T21:46:54.065Z,88.02
2022-08-28T21:49:20.671Z,87.75
2022-08-28T21:51:47.187Z,87.65
2022-08-28T21:54:13.939Z,87.88
2022-08-28T21:56:42.171Z,88.19
2022-08-28T21:59:08.760Z,88.37
2022-08-28T22:01:35.431Z,87.86
2022-08-28T22:04:02.583Z,87.80
2022-08-28T22:06:29.403Z,87.63
2022-08-28T22:08:56.694Z,87.98
2022-08-28T22:11:24.875Z,88.55
2022-08-28T22:13:53.672Z,87.70
2022-08-28T22:16:21.122Z,88.12
2022-08-28T22:18:47.782Z,87.81
2022-08-28T22:21:17.091Z,88.00
2022-08-28T22:23:45.482Z,87.74
2022-08-28T22:26:15.356Z,88.21
2022-08-28T22:28:42.198Z,87.88
2022-08-28T22:31:10.649Z,88.14
2022-08-28T22:33:37.480Z,87.91
2022-08-28T22:36:04.638Z,87.56
2022-08-28T22:38:31.532Z,88.24
2022-08-28T22:40:58.093Z,88.48
2022-08-28T22:43:24.839Z,88.56
2022-08-28T22:45:51.446Z,88.46
2022-08-28T22:48:19.567Z,88.39
2022-08-28T22:50:47.063Z,88.71
2022-08-28T22:53:14.468Z,89.34
2022-08-28T22:55:43.529Z,88.82
2022-08-28T22:58:11.027Z,88.64
2022-08-28T23:00:40.389Z,89.24
2022-08-28T23:03:07.074Z,89.34
2022-08-28T23:05:35.268Z,89.34
2022-08-28T23:08:02.021Z,89.23
2022-08-28T23:10:55.385Z,88.77
2022-08-28T23:13:15.149Z,89.08
2022-08-28T23:15:42.329Z,88.81
2022-08-28T23:18:09.557Z,88.70
2022-08-28T23:20:37.547Z,89.38
2022-08-28T23:23:04.105Z,88.82
2022-08-28T23:25:30.681Z,88.64
2022-08-28T23:27:57.246Z,88.93
2022-08-28T23:30:24.923Z,89.66
2022-08-28T23:32:53.056Z,89.19
2022-08-28T23:35:20.369Z,89.54
2022-08-28T23:37:51.990Z,89.19
2022-08-28T23:40:20.464Z,89.05
2022-08-28T23:42:47.177Z,89.19
2022-08-28T23:45:16.877Z,89.75
2022-08-28T23:47:43.578Z,89.25
2022-08-28T23:50:14.118Z,89.53
2022-08-28T23:52:43.002Z,90.03
2022-08-28T23:55:12.622Z,90.07
2022-08-28T23:57:39.424Z,89.98
